Time;durP1;ratioP1;P1;durP2;ratioP2;P2;SDS_P1;SDS_P2;PMS_P1;PMS_P2;Temp;Humidity;BMP_temperature;BMP_pressure;BME280_temperature;BME280_humidity;BME280_pressure;Samples;Min_cycle;Max_cycle;Signal;HPM_P1;HPM_P2
2021/12/05 00:23:18;;;;;;;4.10;1.80;;;3.60;99.90;;;;;;5087078;28;20229;-82
2021/12/05 00:25:49;;;;;;;3.35;2.20;;;3.80;99.90;;;;;;5090183;28;20218;-82
2021/12/05 00:34:01;;;;;;;1.92;1.83;;;3.50;99.90;;;;;;5083928;28;20203;-82
2021/12/05 00:39:45;;;;;;;2.03;1.88;;;3.70;99.90;;;;;;5082834;28;20210;-82
2021/12/05 00:56:04;;;;;;;3.83;2.03;;;3.90;99.90;;;;;;5055120;28;20244;-82
2021/12/05 01:07:09;;;;;;;1.83;1.67;;;3.90;99.90;;;;;;5086831;28;20222;-83
2021/12/05 01:09:43;;;;;;;2.10;1.88;;;3.90;99.90;;;;;;5083573;28;20213;-82
2021/12/05 01:12:32;;;;;;;1.90;1.75;;;3.90;99.90;;;;;;5084887;28;20278;-82
2021/12/05 01:15:04;;;;;;;1.92;1.42;;;4.00;99.90;;;;;;5085419;28;20344;-83
2021/12/05 01:17:38;;;;;;;3.40;2.30;;;4.00;99.90;;;;;;5087368;28;20224;-83
2021/12/05 01:20:09;;;;;;;2.50;2.03;;;3.90;99.90;;;;;;5086611;28;20211;-82
2021/12/05 01:22:41;;;;;;;3.67;1.98;;;3.80;99.90;;;;;;5086869;28;20210;-82
2021/12/05 01:25:19;;;;;;;2.22;1.85;;;3.60;99.90;;;;;;5093836;28;20220;-82
2021/12/05 01:27:53;;;;;;;2.55;1.90;;;3.70;99.90;;;;;;5108361;28;20290;-82
2021/12/05 01:30:29;;;;;;;2.40;1.70;;;3.70;99.90;;;;;;5103296;28;20218;-82
2021/12/05 01:33:03;;;;;;;1.65;1.55;;;3.70;99.90;;;;;;5088121;28;20211;-82
2021/12/05 01:35:48;;;;;;;2.00;1.90;;;3.60;99.90;;;;;;5082334;28;20296;-82
2021/12/05 01:38:25;;;;;;;2.08;1.40;;;3.60;99.90;;;;;;5085998;28;20220;-82
2021/12/05 01:41:07;;;;;;;3.33;1.95;;;3.60;99.90;;;;;;5086283;28;20200;-82
2021/12/05 01:49:39;;;;;;;3.15;1.70;;;3.60;99.90;;;;;;5087619;28;20576;-83
2021/12/05 01:52:28;;;;;;;3.38;2.15;;;3.60;99.90;;;;;;5085663;28;20203;-82
2021/12/05 01:55:16;;;;;;;2.25;1.60;;;3.60;99.90;;;;;;5086489;28;20228;-82
2021/12/05 01:58:07;;;;;;;2.00;1.90;;;3.60;99.90;;;;;;5087949;28;20219;-83
2021/12/05 02:09:07;;;;;;;3.72;2.10;;;3.60;99.90;;;;;;5093481;28;20215;-82
2021/12/05 02:31:14;;;;;;;1.60;1.23;;;3.40;99.90;;;;;;5069545;28;20209;-84
2021/12/05 02:34:07;;;;;;;1.63;1.30;;;3.40;99.90;;;;;;5083120;28;20186;-84
2021/12/05 02:37:03;;;;;;;5.57;1.80;;;3.40;99.90;;;;;;5090794;28;20225;-84
2021/12/05 02:42:24;;;;;;;3.33;1.92;;;3.40;99.90;;;;;;5082975;28;20203;-82
2021/12/05 02:44:52;;;;;;;1.55;1.40;;;3.40;99.90;;;;;;5107722;28;20224;-82
2021/12/05 02:47:22;;;;;;;3.65;1.63;;;3.30;99.90;;;;;;5113537;28;20210;-83
2021/12/05 02:49:52;;;;;;;2.05;1.95;;;3.20;99.90;;;;;;5100302;28;20211;-84
2021/12/05 02:52:25;;;;;;;2.25;1.50;;;3.20;99.90;;;;;;5093480;28;20213;-84
2021/12/05 02:54:57;;;;;;;6.07;2.38;;;3.20;99.90;;;;;;5094683;28;20218;-84
2021/12/05 02:57:44;;;;;;;1.95;1.67;;;3.20;99.90;;;;;;5104190;28;20245;-85
2021/12/05 03:00:18;;;;;;;2.63;1.80;;;3.30;99.90;;;;;;5114368;28;20190;-82
2021/12/05 03:02:48;;;;;;;3.25;1.33;;;3.30;99.90;;;;;;5111365;28;20210;-81
2021/12/05 03:05:19;;;;;;;2.33;2.13;;;3.30;99.90;;;;;;5100336;28;20223;-81
2021/12/05 03:07:47;;;;;;;1.88;1.55;;;3.40;99.90;;;;;;5105686;28;20206;-82
2021/12/05 03:10:19;;;;;;;1.65;1.58;;;3.40;99.90;;;;;;5113943;28;20280;-82
2021/12/05 03:12:46;;;;;;;3.67;1.90;;;3.50;99.90;;;;;;5102657;28;20200;-82
2021/12/05 03:15:16;;;;;;;1.85;1.73;;;3.60;99.90;;;;;;5093616;28;20284;-82
2021/12/05 03:17:44;;;;;;;4.07;1.70;;;3.60;99.90;;;;;;5092949;28;20259;-82
2021/12/05 03:20:13;;;;;;;2.08;1.90;;;3.60;99.90;;;;;;5093641;28;20202;-82
2021/12/05 03:22:40;;;;;;;2.33;1.98;;;3.60;99.90;;;;;;5104127;28;20225;-82
2021/12/05 03:25:09;;;;;;;4.88;2.10;;;3.70;99.90;;;;;;5112836;28;20210;-82
2021/12/05 03:27:39;;;;;;;4.20;1.45;;;3.80;99.90;;;;;;5102096;28;20203;-82
2021/12/05 03:30:08;;;;;;;1.70;1.60;;;3.80;99.90;;;;;;5091590;28;20264;-82
2021/12/05 03:32:36;;;;;;;4.63;1.75;;;3.80;99.90;;;;;;5098200;28;20202;-82
2021/12/05 03:35:04;;;;;;;3.65;1.67;;;3.80;99.90;;;;;;5097417;28;20226;-82
2021/12/05 03:37:31;;;;;;;8.93;3.80;;;3.90;99.90;;;;;;5090687;28;20220;-82
2021/12/05 03:39:58;;;;;;;4.18;2.03;;;3.90;99.90;;;;;;5090244;28;20296;-82
2021/12/05 03:42:25;;;;;;;1.95;1.65;;;3.80;99.90;;;;;;5095483;28;20285;-82
2021/12/05 03:44:53;;;;;;;3.28;2.20;;;3.80;99.90;;;;;;5114047;28;20231;-82
2021/12/05 03:47:20;;;;;;;1.83;1.40;;;3.70;99.90;;;;;;5104565;28;20273;-82
2021/12/05 03:49:47;;;;;;;3.72;1.85;;;3.60;99.90;;;;;;5093547;28;20212;-82
2021/12/05 03:52:17;;;;;;;2.50;1.92;;;3.50;99.90;;;;;;5101874;28;20206;-82
2021/12/05 03:54:44;;;;;;;3.70;1.55;;;3.40;99.90;;;;;;5113007;28;20224;-82
2021/12/05 03:57:12;;;;;;;2.75;1.63;;;3.40;99.90;;;;;;5112458;28;20221;-82
2021/12/05 03:59:39;;;;;;;3.83;2.05;;;3.30;99.90;;;;;;5113726;28;20213;-82
2021/12/05 04:02:08;;;;;;;3.78;2.25;;;3.40;99.90;;;;;;5110261;28;20293;-82
2021/12/05 04:04:35;;;;;;;4.97;3.20;;;3.40;99.90;;;;;;5096320;28;20227;-82
2021/12/05 04:07:03;;;;;;;2.95;2.33;;;3.30;99.90;;;;;;5101615;28;20184;-82
2021/12/05 04:09:31;;;;;;;3.13;2.10;;;3.20;99.90;;;;;;5117247;28;20194;-83
2021/12/05 04:12:01;;;;;;;3.30;2.13;;;3.20;99.90;;;;;;5116079;28;20222;-82
2021/12/05 04:14:32;;;;;;;3.17;1.83;;;3.30;99.90;;;;;;5116853;28;20273;-82
2021/12/05 04:16:59;;;;;;;4.80;1.63;;;3.40;99.90;;;;;;5103749;22;20238;-81
2021/12/05 04:19:27;;;;;;;1.88;1.52;;;3.40;99.90;;;;;;5087838;28;20265;-81
2021/12/05 04:21:54;;;;;;;3.65;1.90;;;3.40;99.90;;;;;;5104361;28;20206;-82
2021/12/05 04:24:22;;;;;;;2.88;1.90;;;3.40;99.90;;;;;;5107633;28;20233;-82
2021/12/05 04:26:50;;;;;;;2.92;1.42;;;3.40;99.90;;;;;;5107485;28;20298;-83
2021/12/05 04:29:18;;;;;;;4.60;2.05;;;3.40;99.90;;;;;;5107955;28;20224;-83
2021/12/05 04:31:45;;;;;;;2.17;1.90;;;3.40;99.90;;;;;;5090694;28;20194;-82
2021/12/05 04:34:12;;;;;;;2.45;2.35;;;3.50;99.90;;;;;;5087090;28;20220;-84
2021/12/05 04:36:41;;;;;;;1.98;1.30;;;3.60;99.90;;;;;;5100795;28;20219;-83
2021/12/05 04:39:08;;;;;;;5.57;2.30;;;3.70;99.90;;;;;;5106428;28;20227;-83
2021/12/05 04:41:35;;;;;;;3.35;1.70;;;3.60;99.90;;;;;;5093617;28;20203;-83
2021/12/05 04:44:03;;;;;;;7.63;1.65;;;3.70;99.90;;;;;;5105775;28;20688;-83
2021/12/05 04:46:31;;;;;;;1.60;1.50;;;3.60;99.90;;;;;;5104447;28;20227;-83
2021/12/05 04:48:58;;;;;;;2.63;1.00;;;3.60;99.90;;;;;;5106435;28;20255;-83
2021/12/05 04:51:30;;;;;;;3.95;2.33;;;3.60;99.90;;;;;;5094459;28;20205;-83
2021/12/05 04:53:58;;;;;;;1.50;1.27;;;3.60;99.90;;;;;;5065330;28;20839;-83
2021/12/05 04:56:26;;;;;;;1.33;1.23;;;3.50;99.90;;;;;;5076103;28;20229;-82
2021/12/05 04:58:55;;;;;;;2.55;1.73;;;3.50;99.90;;;;;;5085657;28;20220;-82
2021/12/05 05:01:23;;;;;;;1.80;1.70;;;3.50;99.90;;;;;;5085907;28;20212;-81
2021/12/05 05:03:51;;;;;;;4.30;1.70;;;3.20;99.90;;;;;;5085371;28;20212;-81
2021/12/05 05:06:19;;;;;;;3.10;1.85;;;3.00;99.90;;;;;;5084603;28;20249;-81
2021/12/05 05:08:48;;;;;;;1.83;1.67;;;3.00;99.90;;;;;;5084867;28;20256;-81
2021/12/05 05:11:18;;;;;;;3.45;1.45;;;2.80;99.90;;;;;;5084153;28;20237;-82
2021/12/05 05:13:46;;;;;;;1.33;1.23;;;2.60;99.90;;;;;;5102256;28;20206;-81
2021/12/05 05:16:15;;;;;;;2.97;1.58;;;2.40;99.90;;;;;;5099913;28;20226;-81
2021/12/05 05:18:47;;;;;;;3.30;1.75;;;2.50;99.90;;;;;;5086218;28;20229;-82
2021/12/05 05:21:27;;;;;;;5.20;2.03;;;2.50;99.90;;;;;;5091417;28;20255;-82
2021/12/05 05:24:16;;;;;;;1.83;1.70;;;2.60;99.90;;;;;;5086675;28;20205;-81
2021/12/05 05:29:50;;;;;;;2.22;2.13;;;2.50;99.90;;;;;;5105112;28;20228;-82
2021/12/05 05:40:54;;;;;;;1.65;1.30;;;2.60;99.90;;;;;;5087517;28;20258;-82
2021/12/05 05:43:31;;;;;;;4.93;1.30;;;2.50;99.90;;;;;;5088361;28;20208;-83
2021/12/05 05:46:09;;;;;;;1.50;1.40;;;2.50;99.90;;;;;;5087352;28;20704;-82
2021/12/05 05:48:41;;;;;;;5.32;1.50;;;2.50;99.90;;;;;;5086564;28;20210;-82
2021/12/05 05:51:09;;;;;;;1.40;1.30;;;2.40;99.90;;;;;;5087396;28;20206;-82
2021/12/05 05:53:37;;;;;;;1.67;0.93;;;2.40;99.90;;;;;;5092223;28;20213;-81
2021/12/05 05:56:05;;;;;;;1.25;1.15;;;2.40;99.90;;;;;;5086937;28;20233;-84
2021/12/05 05:58:47;;;;;;;2.10;1.42;;;2.30;99.90;;;;;;5087644;28;20298;-83
2021/12/05 06:01:21;;;;;;;2.38;1.17;;;2.40;99.90;;;;;;5088003;28;20732;-83
2021/12/05 06:03:49;;;;;;;2.70;1.40;;;2.30;99.90;;;;;;5099886;28;20189;-83
2021/12/05 06:06:17;;;;;;;6.50;1.50;;;2.30;99.90;;;;;;5104027;28;20334;-83
2021/12/05 06:08:45;;;;;;;1.75;1.65;;;2.30;99.90;;;;;;5085245;28;20203;-81
2021/12/05 06:11:14;;;;;;;2.75;1.30;;;2.40;99.90;;;;;;5081588;28;20201;-82
2021/12/05 06:13:43;;;;;;;1.50;1.35;;;2.40;99.90;;;;;;5085754;28;20263;-82
2021/12/05 06:16:12;;;;;;;5.10;1.30;;;2.30;99.90;;;;;;5083273;28;20239;-82
2021/12/05 06:18:40;;;;;;;2.17;2.08;;;2.30;99.90;;;;;;5086441;28;20603;-82
2021/12/05 06:21:08;;;;;;;1.48;1.48;;;2.30;99.90;;;;;;5084738;28;20190;-81
2021/12/05 06:23:37;;;;;;;2.60;1.67;;;2.20;99.90;;;;;;5088964;28;20217;-82
2021/12/05 06:26:07;;;;;;;2.38;1.50;;;2.10;99.90;;;;;;5087321;28;20222;-82
2021/12/05 06:28:37;;;;;;;1.52;1.30;;;2.20;99.90;;;;;;5094782;28;20217;-81
2021/12/05 06:31:18;;;;;;;2.10;1.90;;;2.20;99.90;;;;;;5086913;28;20203;-81
2021/12/05 06:39:28;;;;;;;2.67;1.38;;;2.40;99.90;;;;;;5085114;28;20258;-82
2021/12/05 06:42:33;;;;;;;2.80;1.80;;;2.40;99.90;;;;;;5072166;28;20190;-82
2021/12/05 06:47:45;;;;;;;1.05;0.88;;;2.30;99.90;;;;;;5081784;28;20232;-82
2021/12/05 06:50:12;;;;;;;1.75;1.65;;;2.20;99.90;;;;;;5087618;28;20210;-82
2021/12/05 06:52:39;;;;;;;2.05;1.60;;;2.20;99.90;;;;;;5085913;28;20674;-83
2021/12/05 06:55:06;;;;;;;2.88;1.17;;;2.10;99.90;;;;;;5087195;28;20204;-83
2021/12/05 06:57:33;;;;;;;1.30;1.10;;;2.10;99.90;;;;;;5087155;28;20201;-85
2021/12/05 07:00:00;;;;;;;1.48;1.13;;;2.20;99.90;;;;;;5087705;28;20244;-82
2021/12/05 07:02:27;;;;;;;1.38;1.15;;;2.10;99.90;;;;;;5087066;28;20198;-84
2021/12/05 07:05:13;;;;;;;1.92;1.75;;;2.00;99.90;;;;;;5087613;28;20200;-82
2021/12/05 07:07:42;;;;;;;1.30;1.20;;;2.00;99.90;;;;;;5088547;28;20315;-83
2021/12/05 07:10:12;;;;;;;1.77;1.13;;;2.10;99.90;;;;;;5083421;28;20207;-84
2021/12/05 07:13:24;;;;;;;2.28;1.42;;;2.10;99.90;;;;;;5084627;28;20230;-82
2021/12/05 07:15:47;;;;;;;1.42;1.23;;;2.20;99.90;;;;;;5085143;28;20602;-83
2021/12/05 07:21:16;;;;;;;4.82;1.40;;;2.30;99.90;;;;;;5087164;28;20201;-82
2021/12/05 07:23:50;;;;;;;2.33;1.65;;;2.40;99.90;;;;;;5088548;28;20213;-82
2021/12/05 07:26:23;;;;;;;5.28;1.65;;;2.50;99.90;;;;;;5087647;28;20221;-82
2021/12/05 07:42:38;;;;;;;3.35;1.65;;;2.60;99.90;;;;;;5091475;28;20254;-83
2021/12/05 07:45:06;;;;;;;2.22;2.13;;;2.60;99.90;;;;;;5087084;28;20212;-85
2021/12/05 07:47:34;;;;;;;1.70;1.40;;;2.60;99.90;;;;;;5082654;28;20713;-82
2021/12/05 07:50:06;;;;;;;2.22;1.45;;;2.60;99.90;;;;;;5083798;28;20540;-84
2021/12/05 07:52:38;;;;;;;2.53;1.63;;;2.70;99.90;;;;;;5078615;28;20214;-82
2021/12/05 07:55:13;;;;;;;2.35;1.40;;;2.70;99.90;;;;;;5080186;28;20214;-81
2021/12/05 07:57:52;;;;;;;2.15;1.70;;;2.70;99.90;;;;;;5077009;28;20198;-81
2021/12/05 08:00:26;;;;;;;2.90;1.48;;;2.80;99.90;;;;;;5079410;28;20570;-81
2021/12/05 08:16:40;;;;;;;8.05;5.30;;;2.80;99.90;;;;;;5105113;28;20732;-83
2021/12/05 08:19:07;;;;;;;2.17;1.90;;;2.90;99.90;;;;;;5109189;28;20232;-85
2021/12/05 08:21:33;;;;;;;3.00;2.05;;;2.90;99.90;;;;;;5108574;28;20213;-84
2021/12/05 08:24:02;;;;;;;2.22;2.03;;;2.90;99.90;;;;;;5106805;28;20204;-83
2021/12/05 08:26:32;;;;;;;1.92;1.83;;;3.00;99.90;;;;;;5107223;28;20213;-83
2021/12/05 08:29:07;;;;;;;5.25;3.75;;;3.00;99.90;;;;;;5081095;28;20195;-85
2021/12/05 08:31:55;;;;;;;2.90;2.00;;;3.00;99.90;;;;;;5067039;28;20303;-84
2021/12/05 08:34:42;;;;;;;1.73;1.63;;;3.10;99.90;;;;;;5074003;28;20200;-83
2021/12/05 08:43:12;;;;;;;4.45;1.50;;;3.10;99.90;;;;;;5082303;28;20208;-82
2021/12/05 08:46:19;;;;;;;1.20;1.20;;;3.10;99.90;;;;;;5088530;28;20224;-82
2021/12/05 09:22:14;;;;;;;5.80;2.83;;;3.60;99.90;;;;;;5083852;28;20210;-82
2021/12/05 09:24:53;;;;;;;2.35;1.30;;;3.70;99.90;;;;;;5095208;28;20274;-81
2021/12/05 09:27:54;;;;;;;2.58;1.55;;;3.80;99.90;;;;;;5104966;28;20706;-82
2021/12/05 09:30:50;;;;;;;1.55;1.15;;;3.90;99.90;;;;;;5097180;28;20205;-87
2021/12/05 10:01:24;;;;;;;2.60;1.50;;;5.50;99.90;;;;;;5096908;28;20548;-80
2021/12/05 10:07:22;;;;;;;1.17;1.08;;;6.00;99.90;;;;;;5059703;28;20351;-82
2021/12/05 10:10:04;;;;;;;2.97;0.90;;;6.10;99.90;;;;;;5075374;28;20230;-83
2021/12/05 10:12:51;;;;;;;1.90;0.95;;;6.00;99.90;;;;;;5079048;28;20193;-82
2021/12/05 10:15:41;;;;;;;2.38;1.17;;;6.10;99.90;;;;;;5079763;28;20277;-83
2021/12/05 10:26:54;;;;;;;1.63;1.05;;;6.50;99.90;;;;;;5078193;28;20239;-83
2021/12/05 10:35:33;;;;;;;1.48;0.77;;;6.40;99.90;;;;;;5079616;28;20276;-83
2021/12/05 10:38:05;;;;;;;1.20;1.10;;;6.50;99.90;;;;;;5074941;28;20696;-83
2021/12/05 10:40:37;;;;;;;3.92;1.13;;;6.80;99.90;;;;;;5075737;28;20278;-83
2021/12/05 10:43:12;;;;;;;1.65;1.50;;;7.00;99.90;;;;;;5076043;28;20193;-84
2021/12/05 10:45:41;;;;;;;1.33;1.23;;;7.30;99.90;;;;;;5076516;28;20221;-83
2021/12/05 10:48:12;;;;;;;1.15;0.82;;;7.50;99.90;;;;;;5077144;28;20212;-83
2021/12/05 10:50:43;;;;;;;1.30;1.00;;;7.70;99.90;;;;;;5074394;28;20204;-83
2021/12/05 10:53:43;;;;;;;0.88;0.80;;;7.90;99.90;;;;;;5072809;28;20208;-82
2021/12/05 10:56:15;;;;;;;0.77;0.50;;;8.40;99.90;;;;;;5094970;28;20216;-82
2021/12/05 10:58:47;;;;;;;0.75;0.65;;;8.90;99.90;;;;;;5098127;28;20208;-82
2021/12/05 11:01:18;;;;;;;0.50;0.50;;;9.30;99.90;;;;;;5098048;28;20196;-82
2021/12/05 11:03:48;;;;;;;0.70;0.60;;;9.90;99.90;;;;;;5099242;28;20218;-82
2021/12/05 11:06:30;;;;;;;0.98;0.98;;;10.90;99.10;;;;;;5081873;28;20222;-82
2021/12/05 11:09:02;;;;;;;1.60;1.50;;;11.50;97.90;;;;;;5082334;28;20203;-83
2021/12/05 11:11:30;;;;;;;0.63;0.63;;;12.30;96.70;;;;;;5097216;28;20457;-83
2021/12/05 11:13:58;;;;;;;2.13;1.07;;;12.90;95.30;;;;;;5098425;28;20458;-83
2021/12/05 11:16:36;;;;;;;0.93;0.77;;;12.60;92.60;;;;;;5096134;28;20491;-83
2021/12/05 11:19:08;;;;;;;0.80;0.80;;;12.20;93.30;;;;;;5098368;28;20489;-82
2021/12/05 11:21:36;;;;;;;1.17;1.10;;;11.50;92.70;;;;;;5097910;28;20464;-82
2021/12/05 11:24:07;;;;;;;1.07;0.90;;;11.10;93.60;;;;;;5098089;28;20473;-82
2021/12/05 11:26:35;;;;;;;0.87;0.87;;;10.90;95.00;;;;;;5078551;28;20474;-83
2021/12/05 11:29:02;;;;;;;0.60;0.60;;;11.10;94.40;;;;;;5081254;28;20450;-83
2021/12/05 11:31:32;;;;;;;1.97;1.30;;;11.10;93.20;;;;;;5060420;28;20841;-83
2021/12/05 11:33:59;;;;;;;0.77;0.77;;;11.30;94.20;;;;;;5092078;28;20834;-83
2021/12/05 11:36:28;;;;;;;1.10;0.80;;;11.40;93.90;;;;;;5087012;28;20866;-84
2021/12/05 11:38:55;;;;;;;1.10;1.00;;;11.30;93.20;;;;;;5080349;28;20677;-83
2021/12/05 11:41:26;;;;;;;1.50;0.80;;;10.70;93.50;;;;;;5090990;28;20458;-83
2021/12/05 11:43:56;;;;;;;1.58;0.82;;;10.90;93.90;;;;;;5099788;28;20212;-82
2021/12/05 11:46:27;;;;;;;2.15;1.20;;;9.80;93.80;;;;;;5078206;28;20216;-82
2021/12/05 11:48:57;;;;;;;1.70;0.98;;;9.20;95.20;;;;;;5075149;28;20198;-83
2021/12/05 11:51:30;;;;;;;0.75;0.75;;;8.60;96.70;;;;;;5078527;28;20201;-83
2021/12/05 11:53:59;;;;;;;0.63;0.63;;;8.20;97.50;;;;;;5076988;28;20201;-83
2021/12/05 11:56:42;;;;;;;1.05;0.82;;;8.20;98.10;;;;;;5073925;28;20216;-83
2021/12/05 11:59:13;;;;;;;1.05;0.95;;;8.00;98.80;;;;;;5076162;28;20224;-81
2021/12/05 12:01:45;;;;;;;0.93;0.82;;;7.60;98.90;;;;;;5100139;28;20201;-81
2021/12/05 12:04:14;;;;;;;0.88;0.80;;;7.60;99.90;;;;;;5107163;28;20208;-83
2021/12/05 12:06:42;;;;;;;2.80;0.95;;;7.50;99.90;;;;;;5071474;28;20236;-83
2021/12/05 12:09:09;;;;;;;2.78;0.93;;;7.30;99.90;;;;;;5092036;28;20196;-83
2021/12/05 12:11:37;;;;;;;2.03;0.98;;;7.20;99.90;;;;;;5110357;28;20208;-83
2021/12/05 12:14:05;;;;;;;2.28;1.77;;;7.00;99.90;;;;;;5097711;28;20207;-83
2021/12/05 12:16:33;;;;;;;0.80;0.80;;;7.20;99.90;;;;;;5087918;28;20233;-83
2021/12/05 12:19:01;;;;;;;2.30;1.23;;;7.50;99.90;;;;;;5095249;28;20259;-83
2021/12/05 12:21:38;;;;;;;0.95;0.90;;;8.10;99.90;;;;;;5106937;28;20201;-84
2021/12/05 12:24:10;;;;;;;0.88;0.80;;;8.10;99.90;;;;;;5094630;28;20204;-85
2021/12/05 12:26:38;;;;;;;0.60;0.60;;;8.20;99.90;;;;;;5084325;28;20596;-84
2021/12/05 12:29:05;;;;;;;1.45;1.35;;;9.00;99.90;;;;;;5093291;28;20209;-85
2021/12/05 12:31:35;;;;;;;0.60;0.60;;;9.60;98.30;;;;;;5110729;28;20201;-84
2021/12/05 12:34:08;;;;;;;0.95;0.95;;;10.10;95.70;;;;;;5111666;28;20217;-84
2021/12/05 12:36:43;;;;;;;0.93;0.60;;;9.90;95.30;;;;;;5110225;28;20621;-85
2021/12/05 12:39:31;;;;;;;0.70;0.70;;;9.80;97.20;;;;;;5108997;28;20251;-85
2021/12/05 12:42:25;;;;;;;1.35;0.88;;;9.40;96.20;;;;;;5112852;28;20211;-84
2021/12/05 12:45:15;;;;;;;0.60;0.60;;;8.70;96.80;;;;;;5114119;28;20268;-84
2021/12/05 12:47:54;;;;;;;0.85;0.50;;;8.50;97.70;;;;;;5108267;28;20291;-84
2021/12/05 12:50:51;;;;;;;0.68;0.50;;;8.20;97.70;;;;;;5111078;28;20203;-84
2021/12/05 12:53:22;;;;;;;1.45;0.70;;;7.80;98.10;;;;;;5114352;28;20235;-84
2021/12/05 12:55:57;;;;;;;0.90;0.90;;;7.90;98.80;;;;;;5115300;28;20292;-84
2021/12/05 12:58:48;;;;;;;1.67;0.80;;;8.00;99.10;;;;;;5116203;28;20271;-84
2021/12/05 13:01:34;;;;;;;0.88;0.50;;;7.70;99.20;;;;;;5115463;28;20228;-84
2021/12/05 13:04:30;;;;;;;0.52;0.52;;;7.60;99.20;;;;;;5116161;28;20208;-84
2021/12/05 13:10:00;;;;;;;0.43;0.43;;;7.40;99.90;;;;;;5116066;28;20248;-84
2021/12/05 13:10:25;;;;;;;1.05;0.57;;;7.30;99.90;;;;;;5114270;28;20200;-84
2021/12/05 13:12:59;;;;;;;0.70;0.70;;;7.10;99.90;;;;;;5113415;28;20251;-84
2021/12/05 13:15:40;;;;;;;1.42;0.73;;;7.20;99.90;;;;;;5114225;28;20228;-84
2021/12/05 13:18:26;;;;;;;0.85;0.60;;;7.20;99.90;;;;;;5113704;28;20195;-84
2021/12/05 13:20:57;;;;;;;1.85;0.55;;;7.30;99.90;;;;;;5113067;28;20228;-84
2021/12/05 13:23:34;;;;;;;0.80;0.80;;;7.30;99.90;;;;;;5112926;28;20204;-82
2021/12/05 13:26:26;;;;;;;1.75;0.68;;;7.40;99.90;;;;;;5107694;28;20216;-84
2021/12/05 13:28:56;;;;;;;0.60;0.60;;;8.10;99.90;;;;;;5112460;28;20210;-84
2021/12/05 13:31:35;;;;;;;0.80;0.63;;;8.70;99.30;;;;;;5112151;28;20204;-83
2021/12/05 13:34:30;;;;;;;1.02;0.80;;;8.70;98.90;;;;;;5111716;28;20192;-84
2021/12/05 13:37:01;;;;;;;1.10;0.73;;;8.30;98.90;;;;;;5101329;28;20217;-84
2021/12/05 13:39:47;;;;;;;0.80;0.80;;;8.10;99.40;;;;;;5089073;28;20289;-84
2021/12/05 13:42:19;;;;;;;1.15;0.90;;;8.10;99.50;;;;;;5092904;28;20212;-84
2021/12/05 13:45:21;;;;;;;0.68;0.68;;;8.00;99.70;;;;;;5097110;28;20326;-85
2021/12/05 13:48:25;;;;;;;1.00;1.00;;;7.90;99.70;;;;;;5016313;28;20258;-84
2021/12/05 13:51:02;;;;;;;1.30;1.25;;;7.70;99.90;;;;;;5014491;28;20202;-83
2021/12/05 13:53:45;;;;;;;0.80;0.80;;;7.40;99.90;;;;;;5071759;28;20268;-84
2021/12/05 13:56:16;;;;;;;1.50;1.40;;;7.20;99.90;;;;;;5085400;28;20227;-83
2021/12/05 13:58:48;;;;;;;1.10;1.00;;;6.90;99.90;;;;;;5089368;28;20201;-84
2021/12/05 14:01:19;;;;;;;2.05;1.02;;;6.70;99.90;;;;;;5084622;28;20217;-83
2021/12/05 14:04:19;;;;;;;1.45;1.38;;;6.70;99.90;;;;;;5085993;28;20204;-83
2021/12/05 14:06:53;;;;;;;0.98;0.98;;;6.70;99.90;;;;;;5080373;28;20307;-83
2021/12/05 14:09:35;;;;;;;1.10;1.00;;;6.60;99.90;;;;;;5086452;28;20238;-84
2021/12/05 14:12:14;;;;;;;1.10;0.90;;;6.80;99.90;;;;;;5087467;28;20259;-82
2021/12/05 14:14:44;;;;;;;2.13;1.92;;;7.00;99.90;;;;;;5088960;28;20207;-83
2021/12/05 14:17:12;;;;;;;1.48;1.38;;;7.20;99.90;;;;;;5090205;28;20670;-83
2021/12/05 14:19:41;;;;;;;1.05;0.95;;;7.20;99.90;;;;;;5092996;28;20193;-83
2021/12/05 14:22:12;;;;;;;2.40;2.20;;;7.40;99.90;;;;;;5096493;28;20215;-83
2021/12/05 14:24:43;;;;;;;2.55;1.65;;;7.70;99.90;;;;;;5086012;28;20197;-84
2021/12/05 14:27:12;;;;;;;1.67;1.10;;;8.00;99.90;;;;;;5093348;28;20220;-84
2021/12/05 14:33:16;;;;;;;1.20;1.10;;;8.30;99.50;;;;;;5010860;28;20205;-84
2021/12/05 14:35:44;;;;;;;1.60;1.10;;;8.30;98.70;;;;;;5090315;28;20284;-84
2021/12/05 14:38:13;;;;;;;0.70;0.70;;;8.30;98.40;;;;;;5093010;28;20232;-83
2021/12/05 14:40:40;;;;;;;1.70;1.00;;;8.30;98.50;;;;;;5089612;28;20276;-84
2021/12/05 14:43:11;;;;;;;1.77;1.30;;;8.10;98.40;;;;;;5087173;28;20269;-84
2021/12/05 14:45:41;;;;;;;1.85;0.98;;;7.90;98.80;;;;;;5090707;28;20213;-84
2021/12/05 14:48:10;;;;;;;0.98;0.90;;;7.70;99.30;;;;;;5087234;28;20197;-84
2021/12/05 14:50:38;;;;;;;7.88;1.33;;;7.40;99.20;;;;;;5107481;28;20207;-84
2021/12/05 14:53:09;;;;;;;1.20;1.10;;;7.30;99.70;;;;;;5113811;28;20597;-84
2021/12/05 14:55:37;;;;;;;2.65;1.27;;;7.00;99.90;;;;;;5100187;28;20217;-84
2021/12/05 14:58:06;;;;;;;1.30;1.20;;;6.70;99.90;;;;;;5088804;28;20205;-84
2021/12/05 15:00:36;;;;;;;2.30;1.30;;;6.60;99.90;;;;;;5098444;28;20213;-83
2021/12/05 15:03:05;;;;;;;2.00;1.30;;;6.40;99.90;;;;;;5094359;28;20721;-84
2021/12/05 15:05:33;;;;;;;1.30;1.17;;;6.40;99.90;;;;;;5093718;28;20219;-83
2021/12/05 15:08:01;;;;;;;2.58;1.55;;;6.30;99.90;;;;;;5094008;28;20189;-83
2021/12/05 15:10:28;;;;;;;1.63;1.52;;;6.20;99.90;;;;;;5103068;28;20214;-84
2021/12/05 15:12:56;;;;;;;2.08;1.42;;;6.10;99.90;;;;;;5113552;28;20224;-83
2021/12/05 15:15:25;;;;;;;4.28;1.70;;;5.90;99.90;;;;;;5090404;28;20251;-83
2021/12/05 15:17:53;;;;;;;1.75;1.58;;;5.70;99.90;;;;;;5092842;28;20200;-83
2021/12/05 15:20:23;;;;;;;2.10;1.90;;;5.70;99.90;;;;;;5092315;28;20244;-84
2021/12/05 15:22:53;;;;;;;2.42;1.92;;;5.70;99.90;;;;;;5093320;28;20193;-83
2021/12/05 15:25:23;;;;;;;2.03;1.83;;;5.70;99.90;;;;;;5088632;28;20223;-84
2021/12/05 15:27:51;;;;;;;1.60;1.25;;;5.70;99.90;;;;;;5091776;28;20249;-83
2021/12/05 15:30:22;;;;;;;1.75;1.65;;;5.40;99.90;;;;;;5088994;28;20201;-84
2021/12/05 15:32:52;;;;;;;1.75;1.65;;;5.40;99.90;;;;;;5092328;28;20204;-83
2021/12/05 15:35:20;;;;;;;2.22;1.55;;;5.40;99.90;;;;;;5093636;28;20221;-83
2021/12/05 15:37:48;;;;;;;5.55;4.28;;;5.50;99.90;;;;;;5092848;28;20609;-84
2021/12/05 15:40:14;;;;;;;1.25;1.15;;;5.40;99.90;;;;;;5098573;28;20230;-84
2021/12/05 15:42:44;;;;;;;3.20;1.65;;;5.30;99.90;;;;;;5115411;28;20204;-84
2021/12/05 15:45:12;;;;;;;3.45;2.30;;;5.40;99.90;;;;;;5109151;28;20620;-83
2021/12/05 15:47:45;;;;;;;1.83;1.73;;;5.40;99.90;;;;;;5095686;28;20228;-84
2021/12/05 15:50:13;;;;;;;2.13;1.90;;;5.40;99.90;;;;;;5095951;28;20184;-83
2021/12/05 15:52:42;;;;;;;2.40;2.03;;;5.50;99.90;;;;;;5094845;28;20205;-83
2021/12/05 15:55:13;;;;;;;1.90;1.63;;;5.50;99.90;;;;;;5093922;28;20226;-84
2021/12/05 15:57:44;;;;;;;1.90;1.65;;;5.50;99.90;;;;;;5091986;28;20207;-84
2021/12/05 16:00:16;;;;;;;1.88;1.63;;;5.50;99.90;;;;;;5095709;28;20288;-83
2021/12/05 16:02:47;;;;;;;1.88;1.70;;;5.50;99.90;;;;;;5094885;28;20207;-84
2021/12/05 16:05:19;;;;;;;1.50;1.40;;;5.50;99.90;;;;;;5093614;28;20225;-84
2021/12/05 16:07:46;;;;;;;4.22;1.70;;;5.50;99.90;;;;;;5094175;28;20200;-83
2021/12/05 16:10:17;;;;;;;4.40;4.00;;;5.50;99.90;;;;;;5098022;28;20207;-85
2021/12/05 16:12:46;;;;;;;2.92;2.65;;;5.50;99.90;;;;;;5094055;28;20215;-85
2021/12/05 16:15:18;;;;;;;2.70;2.10;;;5.40;99.90;;;;;;5088894;28;20232;-86
2021/12/05 16:17:54;;;;;;;2.30;2.10;;;5.40;99.90;;;;;;5096574;28;20265;-82
2021/12/05 16:20:24;;;;;;;2.72;2.53;;;5.50;99.90;;;;;;5058028;28;20580;-87
2021/12/05 16:23:06;;;;;;;2.70;2.50;;;5.50;99.90;;;;;;5061085;28;20206;-87
2021/12/05 16:25:35;;;;;;;3.65;3.35;;;5.50;99.90;;;;;;5061385;28;20225;-88
2021/12/05 16:28:05;;;;;;;3.45;3.10;;;5.50;99.90;;;;;;5061548;28;20588;-86
2021/12/05 16:30:49;;;;;;;3.47;3.28;;;5.50;99.90;;;;;;5077580;28;20208;-87
2021/12/05 16:33:19;;;;;;;2.90;2.70;;;5.50;99.90;;;;;;5086789;28;20197;-85
2021/12/05 16:35:50;;;;;;;3.30;3.10;;;5.50;99.90;;;;;;5082345;28;20228;-85
2021/12/05 16:38:26;;;;;;;4.30;3.72;;;5.40;99.90;;;;;;5084052;28;20200;-87
2021/12/05 16:41:15;;;;;;;3.88;3.50;;;5.40;99.90;;;;;;5099584;28;20235;-85
2021/12/05 16:43:58;;;;;;;5.95;5.15;;;5.40;99.90;;;;;;5078805;28;20209;-84
2021/12/05 16:46:28;;;;;;;4.95;4.55;;;5.40;99.90;;;;;;5086293;28;20234;-85
2021/12/05 16:48:58;;;;;;;6.47;5.13;;;5.40;99.90;;;;;;5084522;28;20567;-85
2021/12/05 16:51:29;;;;;;;6.50;4.00;;;5.40;99.90;;;;;;5083113;28;20201;-85
2021/12/05 16:54:02;;;;;;;4.88;4.30;;;5.40;99.90;;;;;;5082545;28;20193;-83
2021/12/05 16:56:48;;;;;;;4.07;2.88;;;5.30;99.90;;;;;;5096882;28;20227;-85
2021/12/05 16:59:19;;;;;;;4.05;2.97;;;5.20;99.90;;;;;;5099068;28;20204;-83
2021/12/05 17:01:47;;;;;;;2.78;2.40;;;5.20;99.90;;;;;;5081129;28;20219;-82
2021/12/05 17:04:15;;;;;;;4.95;2.33;;;5.10;99.90;;;;;;5090671;28;20203;-82
2021/12/05 17:06:54;;;;;;;2.45;2.13;;;5.00;99.90;;;;;;5088126;28;20217;-82
2021/12/05 17:09:26;;;;;;;2.42;1.90;;;5.00;99.90;;;;;;5077444;28;20208;-85
2021/12/05 17:11:53;;;;;;;2.95;2.75;;;4.90;99.90;;;;;;5091488;28;20197;-83
2021/12/05 17:14:24;;;;;;;3.00;2.20;;;4.90;99.90;;;;;;5098553;28;20196;-86
2021/12/05 17:16:59;;;;;;;2.17;2.08;;;4.80;99.90;;;;;;5116858;22;20604;-85